Time;durP1;ratioP1;P1;durP2;ratioP2;P2;SDS_P1;SDS_P2;PMS_P1;PMS_P2;Temp;Humidity;BMP_temperature;BMP_pressure;BME280_temperature;BME280_humidity;BME280_pressure;Samples;Min_cycle;Max_cycle;Signal;HPM_P1;HPM_P2
2023/02/09 00:01:12;;;;;;;0.30;0.30;;;-3.00;99.90;;;;;;5073291;28;20438;-84
2023/02/09 00:03:40;;;;;;;0.70;0.70;;;-3.00;99.90;;;;;;5072937;28;20434;-84
2023/02/09 00:06:08;;;;;;;1.37;1.37;;;-3.00;99.90;;;;;;5073115;28;20469;-85
2023/02/09 00:08:36;;;;;;;0.83;0.63;;;-3.00;99.90;;;;;;5073237;28;20445;-84
2023/02/09 00:11:06;;;;;;;0.30;0.30;;;-3.00;99.90;;;;;;5073073;28;20500;-84
2023/02/09 00:13:32;;;;;;;0.30;0.30;;;-3.10;99.90;;;;;;5073254;28;20478;-84
2023/02/09 00:16:00;;;;;;;0.30;0.30;;;-3.10;99.90;;;;;;5072969;28;20444;-85
2023/02/09 00:18:30;;;;;;;0.30;0.30;;;-3.10;99.90;;;;;;5073544;28;20456;-85
2023/02/09 00:20:57;;;;;;;1.30;0.97;;;-3.10;99.90;;;;;;5073050;28;20445;-84
2023/02/09 00:23:24;;;;;;;0.30;0.30;;;-3.20;99.90;;;;;;5073127;28;20792;-85
2023/02/09 00:25:51;;;;;;;1.40;0.50;;;-3.30;99.90;;;;;;5072646;28;20981;-85
2023/02/09 00:28:17;;;;;;;0.50;0.50;;;-3.40;99.90;;;;;;5072965;28;20420;-85
2023/02/09 00:30:44;;;;;;;1.43;1.00;;;-3.40;99.90;;;;;;5075026;28;20424;-85
2023/02/09 00:33:11;;;;;;;4.53;1.33;;;-3.50;99.90;;;;;;5076527;28;20484;-85
2023/02/09 00:35:41;;;;;;;0.30;0.30;;;-3.50;99.90;;;;;;5076347;28;20485;-84
2023/02/09 00:38:08;;;;;;;0.60;0.60;;;-3.60;99.90;;;;;;5076819;28;20819;-84
2023/02/09 00:40:35;;;;;;;0.50;0.50;;;-3.60;99.90;;;;;;5076474;28;20445;-84
2023/02/09 00:43:01;;;;;;;0.40;0.40;;;-3.60;99.90;;;;;;5076171;28;20446;-84
2023/02/09 00:45:29;;;;;;;1.60;0.70;;;-3.60;99.90;;;;;;5076344;28;20454;-84
2023/02/09 00:47:56;;;;;;;0.30;0.30;;;-3.60;99.90;;;;;;5076447;28;20481;-84
2023/02/09 00:50:23;;;;;;;0.40;0.40;;;-3.60;99.90;;;;;;5076517;28;20424;-84
2023/02/09 00:52:51;;;;;;;0.40;0.30;;;-3.70;99.90;;;;;;5076270;28;20431;-85
2023/02/09 00:55:18;;;;;;;0.30;0.23;;;-3.70;99.90;;;;;;5076302;28;20424;-85
2023/02/09 00:57:45;;;;;;;1.03;0.97;;;-3.70;99.90;;;;;;5076168;28;20477;-84
2023/02/09 01:00:14;;;;;;;0.30;0.30;;;-3.60;99.90;;;;;;5076488;28;20423;-85
2023/02/09 01:02:41;;;;;;;1.47;1.40;;;-3.50;99.90;;;;;;5076209;28;20452;-85
2023/02/09 01:05:08;;;;;;;0.40;0.40;;;-3.50;99.90;;;;;;5076293;28;20807;-85
2023/02/09 01:07:35;;;;;;;1.10;0.50;;;-3.50;99.90;;;;;;5075769;28;20445;-85
2023/02/09 01:10:04;;;;;;;0.83;0.83;;;-3.40;99.90;;;;;;5076048;28;20446;-84
2023/02/09 01:12:31;;;;;;;0.73;0.70;;;-3.40;99.90;;;;;;5075752;28;20409;-85
2023/02/09 01:14:58;;;;;;;1.60;0.97;;;-3.30;99.90;;;;;;5075823;28;20485;-84
2023/02/09 01:17:24;;;;;;;0.30;0.20;;;-3.30;99.90;;;;;;5076110;28;20444;-84
2023/02/09 01:19:52;;;;;;;0.30;0.30;;;-3.30;99.90;;;;;;5075873;28;20460;-84
2023/02/09 01:22:18;;;;;;;1.40;0.60;;;-3.40;99.90;;;;;;5075868;28;20427;-85
2023/02/09 01:24:45;;;;;;;0.30;0.30;;;-3.30;99.90;;;;;;5075736;28;20424;-85
2023/02/09 01:27:14;;;;;;;0.30;0.30;;;-3.30;99.90;;;;;;5075371;28;21015;-84
2023/02/09 01:29:40;;;;;;;0.43;0.43;;;-3.20;99.90;;;;;;5075626;28;20808;-84
2023/02/09 01:32:07;;;;;;;0.40;0.40;;;-3.20;99.90;;;;;;5075609;28;20464;-84
2023/02/09 01:34:34;;;;;;;1.03;1.03;;;-3.20;99.90;;;;;;5075810;28;20460;-85
2023/02/09 01:37:01;;;;;;;0.80;0.80;;;-3.30;99.90;;;;;;5075315;28;20523;-84
2023/02/09 01:39:27;;;;;;;0.30;0.30;;;-3.30;99.90;;;;;;5075152;28;20433;-84
2023/02/09 01:41:54;;;;;;;0.30;0.30;;;-3.30;99.90;;;;;;5075111;28;20453;-85
2023/02/09 01:44:58;;;;;;;1.20;1.10;;;-3.30;99.90;;;;;;5075082;28;20420;-85
2023/02/09 01:47:26;;;;;;;0.43;0.43;;;-3.30;99.90;;;;;;5075042;28;21018;-84
2023/02/09 01:49:53;;;;;;;1.77;1.67;;;-3.30;99.90;;;;;;5075336;28;20789;-84
2023/02/09 01:52:26;;;;;;;0.30;0.30;;;-3.40;99.90;;;;;;5074975;28;20449;-85
2023/02/09 01:54:55;;;;;;;2.67;1.27;;;-3.40;99.90;;;;;;5075074;28;20474;-84
2023/02/09 01:57:26;;;;;;;0.47;0.47;;;-3.50;99.90;;;;;;5075158;28;20474;-85
2023/02/09 01:59:58;;;;;;;0.50;0.50;;;-3.50;99.90;;;;;;5075043;28;20891;-85
2023/02/09 02:02:26;;;;;;;0.50;0.50;;;-3.50;99.90;;;;;;5075103;28;20412;-85
2023/02/09 02:04:53;;;;;;;0.40;0.40;;;-3.50;99.90;;;;;;5074966;28;20439;-85
2023/02/09 02:07:26;;;;;;;0.40;0.40;;;-3.50;99.90;;;;;;5074910;28;20477;-85
2023/02/09 02:09:53;;;;;;;2.43;1.60;;;-3.50;99.90;;;;;;5074932;28;20433;-85
2023/02/09 02:12:20;;;;;;;0.80;0.80;;;-3.50;99.90;;;;;;5074797;28;20424;-85
2023/02/09 02:14:47;;;;;;;0.30;0.30;;;-3.50;99.90;;;;;;5074411;28;20455;-85
2023/02/09 02:17:27;;;;;;;2.20;1.07;;;-3.60;99.90;;;;;;5083692;28;20453;-85
2023/02/09 02:20:17;;;;;;;0.30;0.30;;;-3.60;99.90;;;;;;5074737;28;20445;-85
2023/02/09 02:22:56;;;;;;;0.30;0.30;;;-3.60;99.90;;;;;;5074758;28;20434;-84
2023/02/09 02:25:42;;;;;;;0.40;0.40;;;-3.70;99.90;;;;;;5075394;28;20420;-85
2023/02/09 02:28:32;;;;;;;0.83;0.83;;;-3.70;99.90;;;;;;5074316;28;20411;-85
2023/02/09 02:31:41;;;;;;;0.30;0.30;;;-3.80;99.90;;;;;;5074685;28;20421;-85
2023/02/09 02:34:12;;;;;;;0.30;0.30;;;-3.80;99.90;;;;;;5038222;28;20481;-85
2023/02/09 02:36:46;;;;;;;7.10;2.40;;;-3.90;99.90;;;;;;5073887;28;20470;-85
2023/02/09 02:39:22;;;;;;;0.60;0.60;;;-3.80;99.90;;;;;;5074355;28;20408;-85
2023/02/09 02:44:44;;;;;;;0.50;0.50;;;-3.80;99.90;;;;;;5074083;28;20388;-85
2023/02/09 02:47:17;;;;;;;0.40;0.40;;;-3.70;99.90;;;;;;5074513;28;20901;-85
2023/02/09 02:49:50;;;;;;;0.30;0.20;;;-3.70;99.90;;;;;;5074101;28;20404;-85
2023/02/09 02:52:17;;;;;;;1.23;1.10;;;-3.80;99.90;;;;;;5073580;28;20405;-85
2023/02/09 02:54:49;;;;;;;0.30;0.30;;;-3.70;99.90;;;;;;5073521;28;21020;-85
2023/02/09 02:57:20;;;;;;;2.00;0.73;;;-3.70;99.90;;;;;;5073975;28;20466;-85
2023/02/09 02:59:52;;;;;;;0.50;0.50;;;-3.70;99.90;;;;;;5074008;28;20430;-85
2023/02/09 03:02:22;;;;;;;0.83;0.83;;;-3.80;99.90;;;;;;5073688;28;20894;-85
2023/02/09 03:04:54;;;;;;;0.67;0.67;;;-3.80;99.90;;;;;;5073844;28;20441;-85
2023/02/09 03:07:20;;;;;;;1.13;1.13;;;-3.80;99.90;;;;;;5073871;28;20488;-85
2023/02/09 03:09:51;;;;;;;0.30;0.30;;;-3.90;99.90;;;;;;5073744;28;20423;-85
2023/02/09 03:12:26;;;;;;;1.13;1.13;;;-3.90;99.90;;;;;;5073723;28;20412;-85
2023/02/09 03:15:14;;;;;;;1.00;1.00;;;-3.90;99.90;;;;;;5073650;28;20440;-85
2023/02/09 03:17:47;;;;;;;0.30;0.30;;;-3.90;99.90;;;;;;5073736;28;20476;-85
2023/02/09 03:20:25;;;;;;;0.40;0.40;;;-3.90;99.90;;;;;;5073684;28;20462;-85
2023/02/09 03:22:56;;;;;;;2.30;1.63;;;-4.00;99.90;;;;;;5073759;28;20420;-85
2023/02/09 03:25:29;;;;;;;0.30;0.30;;;-4.10;99.90;;;;;;5073732;28;20488;-85
2023/02/09 03:28:02;;;;;;;0.30;0.20;;;-4.10;99.90;;;;;;5073743;28;20436;-85
2023/02/09 03:30:29;;;;;;;7.10;0.60;;;-4.10;99.90;;;;;;5073646;28;20413;-86
2023/02/09 03:32:56;;;;;;;0.30;0.30;;;-4.10;99.90;;;;;;5073249;28;20424;-85
2023/02/09 03:35:27;;;;;;;0.50;0.50;;;-4.10;99.90;;;;;;5073170;28;20463;-85
2023/02/09 03:37:54;;;;;;;0.60;0.60;;;-4.10;99.90;;;;;;5074731;28;20416;-86
2023/02/09 03:40:21;;;;;;;0.30;0.30;;;-4.20;99.90;;;;;;5073538;28;20443;-86
2023/02/09 03:42:48;;;;;;;0.30;0.30;;;-4.20;99.90;;;;;;5073508;28;20472;-86
2023/02/09 03:45:15;;;;;;;0.30;0.30;;;-4.20;99.90;;;;;;5073379;28;20455;-86
2023/02/09 03:47:42;;;;;;;0.30;0.20;;;-4.20;99.90;;;;;;5073486;28;20471;-86
2023/02/09 03:50:09;;;;;;;1.13;1.13;;;-4.30;99.90;;;;;;5073449;28;20416;-86
2023/02/09 03:52:38;;;;;;;0.97;0.97;;;-4.30;99.90;;;;;;5073542;28;20429;-85
2023/02/09 03:55:05;;;;;;;0.30;0.30;;;-4.40;99.90;;;;;;5073668;28;20550;-86
2023/02/09 03:57:31;;;;;;;1.33;1.03;;;-4.40;99.90;;;;;;5073090;28;20977;-86
2023/02/09 04:00:00;;;;;;;0.30;0.30;;;-4.40;99.90;;;;;;5073218;28;20445;-86
2023/02/09 04:02:26;;;;;;;0.40;0.40;;;-4.40;99.90;;;;;;5073288;28;20892;-85
2023/02/09 04:04:53;;;;;;;0.30;0.30;;;-4.40;99.90;;;;;;5075655;28;20420;-86
2023/02/09 04:07:20;;;;;;;0.50;0.50;;;-4.50;99.90;;;;;;5077590;28;20424;-86
2023/02/09 04:09:48;;;;;;;0.30;0.20;;;-4.50;99.90;;;;;;5076932;28;20412;-87
2023/02/09 04:12:15;;;;;;;0.40;0.40;;;-4.50;99.90;;;;;;5077245;28;20416;-86
2023/02/09 04:14:41;;;;;;;0.30;0.30;;;-4.50;99.90;;;;;;5077114;28;20459;-86
2023/02/09 04:17:08;;;;;;;0.30;0.30;;;-4.50;99.90;;;;;;5076826;28;20449;-86
2023/02/09 04:19:35;;;;;;;0.37;0.37;;;-4.50;99.90;;;;;;5077052;28;20441;-86
2023/02/09 04:22:01;;;;;;;0.30;0.30;;;-4.50;99.90;;;;;;5076925;28;20449;-86
2023/02/09 04:24:28;;;;;;;0.97;0.83;;;-4.50;99.90;;;;;;5077015;28;20424;-86
2023/02/09 04:26:56;;;;;;;0.30;0.30;;;-4.50;99.90;;;;;;5076568;28;20976;-86
2023/02/09 04:29:23;;;;;;;0.30;0.30;;;-4.50;99.90;;;;;;5076867;28;20474;-85
2023/02/09 04:31:50;;;;;;;0.30;0.30;;;-4.50;99.90;;;;;;5076648;28;20460;-85
2023/02/09 04:34:16;;;;;;;0.80;0.80;;;-4.40;99.90;;;;;;5076332;28;20938;-86
2023/02/09 04:36:43;;;;;;;0.30;0.30;;;-4.40;99.90;;;;;;5076397;28;20459;-86
2023/02/09 04:39:10;;;;;;;0.30;0.30;;;-4.40;99.90;;;;;;5076769;28;20427;-86
2023/02/09 04:41:36;;;;;;;0.30;0.30;;;-4.40;99.90;;;;;;5076552;28;20452;-87
2023/02/09 04:44:04;;;;;;;0.40;0.40;;;-4.40;99.90;;;;;;5076339;28;20457;-86
2023/02/09 04:46:31;;;;;;;0.90;0.87;;;-4.50;99.90;;;;;;5076478;28;20451;-86
2023/02/09 04:48:58;;;;;;;0.50;0.50;;;-4.50;99.90;;;;;;5076579;28;20449;-86
2023/02/09 04:51:25;;;;;;;0.30;0.30;;;-4.50;99.90;;;;;;5076491;28;20466;-86
2023/02/09 04:53:51;;;;;;;0.30;0.30;;;-4.50;99.90;;;;;;5076038;28;20420;-86
2023/02/09 04:56:18;;;;;;;0.40;0.40;;;-4.60;99.90;;;;;;5075878;28;20460;-87
2023/02/09 05:01:31;;;;;;;0.40;0.40;;;-4.60;99.90;;;;;;5076382;28;20384;-86
2023/02/09 05:03:58;;;;;;;0.30;0.30;;;-4.60;99.90;;;;;;5076610;28;20428;-86
2023/02/09 05:06:24;;;;;;;0.30;0.30;;;-4.60;99.90;;;;;;5075692;28;21004;-86
2023/02/09 05:08:51;;;;;;;0.30;0.30;;;-4.60;99.90;;;;;;5076109;28;20454;-86
2023/02/09 05:11:18;;;;;;;0.70;0.70;;;-4.60;99.90;;;;;;5076381;28;20441;-86
2023/02/09 05:13:45;;;;;;;0.30;0.30;;;-4.60;99.90;;;;;;5075764;28;20435;-86
2023/02/09 05:16:16;;;;;;;0.30;0.30;;;-4.50;99.90;;;;;;5074958;28;20486;-86
2023/02/09 05:18:44;;;;;;;0.30;0.30;;;-4.60;99.90;;;;;;5076071;28;20488;-86
2023/02/09 05:21:12;;;;;;;0.60;0.60;;;-4.60;99.90;;;;;;5075919;28;20421;-86
2023/02/09 05:23:39;;;;;;;0.30;0.30;;;-4.60;99.90;;;;;;5076534;28;20464;-86
2023/02/09 05:26:06;;;;;;;0.67;0.67;;;-4.60;99.90;;;;;;5075638;28;20814;-86
2023/02/09 05:28:33;;;;;;;0.30;0.30;;;-4.60;99.90;;;;;;5085269;28;20428;-86
2023/02/09 05:30:59;;;;;;;0.40;0.40;;;-4.60;99.90;;;;;;5075599;28;20918;-86
2023/02/09 05:33:26;;;;;;;0.83;0.83;;;-4.70;99.90;;;;;;5075741;28;20456;-86
2023/02/09 05:35:55;;;;;;;0.73;0.53;;;-4.70;99.90;;;;;;5075193;28;20470;-86
2023/02/09 05:38:22;;;;;;;1.33;1.07;;;-4.70;99.90;;;;;;5075659;28;20448;-86
2023/02/09 05:40:49;;;;;;;0.67;0.67;;;-4.70;99.90;;;;;;5075306;28;20456;-86
2023/02/09 05:43:15;;;;;;;1.03;0.93;;;-4.70;99.90;;;;;;5075491;28;20456;-86
2023/02/09 05:45:43;;;;;;;0.30;0.30;;;-4.70;99.90;;;;;;5075578;28;20447;-87
2023/02/09 05:48:09;;;;;;;0.30;0.27;;;-4.70;99.90;;;;;;5075493;28;20456;-86
2023/02/09 05:50:36;;;;;;;0.30;0.30;;;-4.70;99.90;;;;;;5075323;28;20424;-86
2023/02/09 05:53:04;;;;;;;0.40;0.40;;;-4.70;99.90;;;;;;5075998;28;20910;-86
2023/02/09 05:55:31;;;;;;;0.30;0.30;;;-4.80;99.90;;;;;;5075116;28;20486;-86
2023/02/09 05:57:57;;;;;;;0.60;0.60;;;-4.80;99.90;;;;;;5075251;28;20452;-87
2023/02/09 06:00:25;;;;;;;0.30;0.30;;;-4.80;99.90;;;;;;5075152;28;20798;-86
2023/02/09 06:02:52;;;;;;;0.60;0.60;;;-4.80;99.90;;;;;;5075071;28;20427;-86
2023/02/09 06:05:20;;;;;;;0.67;0.60;;;-4.80;99.90;;;;;;5075011;28;20434;-87
2023/02/09 06:07:47;;;;;;;0.50;0.50;;;-4.70;99.90;;;;;;5074629;28;20474;-86
2023/02/09 06:10:16;;;;;;;1.43;1.23;;;-4.70;99.90;;;;;;5075172;28;20427;-86
2023/02/09 06:12:44;;;;;;;0.50;0.50;;;-4.80;99.90;;;;;;5074945;28;20412;-86
2023/02/09 06:15:11;;;;;;;0.30;0.30;;;-4.70;99.90;;;;;;5074790;28;20496;-86
2023/02/09 06:17:37;;;;;;;0.50;0.50;;;-4.70;99.90;;;;;;5074675;28;20457;-86
2023/02/09 06:20:05;;;;;;;0.30;0.30;;;-4.70;99.90;;;;;;5074548;28;20431;-86
2023/02/09 06:22:32;;;;;;;0.30;0.30;;;-4.70;99.90;;;;;;5074728;28;20423;-86
2023/02/09 06:24:59;;;;;;;0.53;0.53;;;-4.70;99.90;;;;;;5074623;28;20448;-86
2023/02/09 06:27:27;;;;;;;0.70;0.70;;;-4.70;99.90;;;;;;5073676;28;20807;-86
2023/02/09 06:29:53;;;;;;;0.40;0.40;;;-4.60;99.90;;;;;;5074539;28;20445;-86
2023/02/09 06:32:20;;;;;;;0.30;0.30;;;-4.60;99.90;;;;;;5074417;28;20453;-86
2023/02/09 06:34:47;;;;;;;0.30;0.30;;;-4.60;99.90;;;;;;5074651;28;20428;-86
2023/02/09 06:37:14;;;;;;;0.90;0.90;;;-4.60;99.90;;;;;;5074237;28;20459;-86
2023/02/09 06:39:40;;;;;;;1.07;1.07;;;-4.60;99.90;;;;;;5074877;28;20428;-86
2023/02/09 06:42:07;;;;;;;0.30;0.30;;;-4.60;99.90;;;;;;5074396;28;20464;-86
2023/02/09 06:44:35;;;;;;;0.30;0.30;;;-4.50;99.90;;;;;;5074259;28;20460;-86
2023/02/09 06:47:02;;;;;;;0.30;0.30;;;-4.60;99.90;;;;;;5074313;28;20457;-87
2023/02/09 06:49:28;;;;;;;1.40;0.73;;;-4.60;99.90;;;;;;5074519;28;20457;-86
2023/02/09 06:51:55;;;;;;;0.30;0.30;;;-4.60;99.90;;;;;;5074100;28;20463;-87
2023/02/09 06:54:22;;;;;;;0.30;0.30;;;-4.60;99.90;;;;;;5074148;28;20427;-86
2023/02/09 06:56:49;;;;;;;0.50;0.50;;;-4.70;99.90;;;;;;5073951;28;20601;-86
2023/02/09 06:59:15;;;;;;;0.40;0.40;;;-4.60;99.90;;;;;;5073778;28;20437;-86
2023/02/09 07:01:43;;;;;;;0.30;0.30;;;-4.60;99.90;;;;;;5074078;28;20420;-87
2023/02/09 07:04:10;;;;;;;0.33;0.33;;;-4.60;99.90;;;;;;5074045;28;20423;-86
2023/02/09 07:06:37;;;;;;;0.30;0.30;;;-4.50;99.90;;;;;;5074065;28;20440;-86
2023/02/09 07:09:04;;;;;;;0.53;0.53;;;-4.50;99.90;;;;;;5074052;28;20785;-86
2023/02/09 07:11:30;;;;;;;1.13;0.90;;;-4.50;99.90;;;;;;5073800;28;20412;-86
2023/02/09 07:13:57;;;;;;;0.30;0.30;;;-4.50;99.90;;;;;;5073826;28;20447;-85
2023/02/09 07:16:24;;;;;;;0.70;0.70;;;-4.50;99.90;;;;;;5073760;28;20474;-86
2023/02/09 07:18:52;;;;;;;0.30;0.30;;;-4.40;99.90;;;;;;5073869;28;20429;-86
2023/02/09 07:21:20;;;;;;;1.17;0.90;;;-4.40;99.90;;;;;;5073684;28;20416;-86
2023/02/09 07:23:47;;;;;;;0.30;0.30;;;-4.40;99.90;;;;;;5073776;28;20548;-86
2023/02/09 07:26:16;;;;;;;0.30;0.20;;;-4.40;99.90;;;;;;5073677;28;20440;-86
2023/02/09 07:28:43;;;;;;;0.50;0.50;;;-4.30;99.90;;;;;;5073711;28;20442;-86
2023/02/09 07:31:12;;;;;;;0.40;0.40;;;-4.20;99.90;;;;;;5073326;28;20456;-86
2023/02/09 07:33:38;;;;;;;0.30;0.30;;;-4.20;99.90;;;;;;5073631;28;20439;-86
2023/02/09 07:36:09;;;;;;;0.53;0.53;;;-4.20;99.90;;;;;;5072976;28;20487;-85
2023/02/09 07:38:36;;;;;;;0.50;0.50;;;-4.10;99.90;;;;;;5074812;28;20408;-86
2023/02/09 07:41:05;;;;;;;0.53;0.53;;;-4.10;99.90;;;;;;5073619;28;20427;-85
2023/02/09 07:43:32;;;;;;;0.40;0.40;;;-4.00;99.90;;;;;;5074135;28;20459;-85
2023/02/09 07:46:00;;;;;;;0.40;0.40;;;-4.00;99.90;;;;;;5074214;28;20803;-84
2023/02/09 07:48:27;;;;;;;0.60;0.60;;;-3.90;99.90;;;;;;5073710;28;20493;-85
2023/02/09 07:50:54;;;;;;;0.80;0.80;;;-3.90;99.90;;;;;;5073737;28;20428;-85
2023/02/09 07:53:22;;;;;;;3.60;1.67;;;-3.80;99.90;;;;;;5073527;28;20920;-85
2023/02/09 07:55:48;;;;;;;0.70;0.70;;;-3.70;99.90;;;;;;5073401;28;20468;-85
2023/02/09 07:58:17;;;;;;;2.57;0.93;;;-3.70;99.90;;;;;;5073818;28;20420;-85
2023/02/09 08:00:44;;;;;;;0.87;0.87;;;-3.60;99.90;;;;;;5073428;28;20449;-85
2023/02/09 08:03:11;;;;;;;0.30;0.30;;;-3.50;99.90;;;;;;5073955;28;20482;-84
2023/02/09 08:05:42;;;;;;;0.63;0.60;;;-3.50;99.90;;;;;;5073132;28;20420;-84
2023/02/09 08:08:09;;;;;;;0.67;0.67;;;-3.40;99.90;;;;;;5073392;28;20424;-85
2023/02/09 08:10:39;;;;;;;0.77;0.50;;;-3.30;99.90;;;;;;5073468;28;20453;-85
2023/02/09 08:13:06;;;;;;;0.93;0.93;;;-3.30;99.90;;;;;;5073195;28;20821;-84
2023/02/09 08:15:39;;;;;;;0.50;0.50;;;-3.30;99.90;;;;;;5073406;28;20492;-84
2023/02/09 08:18:12;;;;;;;1.17;1.17;;;-3.20;99.90;;;;;;5073967;28;20396;-84
2023/02/09 08:20:39;;;;;;;0.50;0.50;;;-3.20;99.90;;;;;;5073809;28;20412;-85
2023/02/09 08:23:08;;;;;;;0.30;0.30;;;-3.10;99.90;;;;;;5073540;28;20424;-84
2023/02/09 08:25:37;;;;;;;0.80;0.80;;;-3.00;99.90;;;;;;5073995;28;20778;-84
2023/02/09 08:28:05;;;;;;;0.90;0.90;;;-2.90;99.90;;;;;;5073357;28;20412;-84
2023/02/09 08:30:34;;;;;;;0.50;0.40;;;-2.80;99.90;;;;;;5072977;28;20435;-84
2023/02/09 08:33:00;;;;;;;0.63;0.63;;;-2.70;99.90;;;;;;5073044;28;20445;-84
2023/02/09 08:35:28;;;;;;;0.37;0.37;;;-2.60;99.90;;;;;;5072829;28;20486;-84
2023/02/09 08:37:54;;;;;;;0.90;0.90;;;-2.50;99.90;;;;;;5074221;28;20968;-83
2023/02/09 08:40:21;;;;;;;1.07;1.07;;;-2.40;99.90;;;;;;5073485;28;20420;-84
2023/02/09 08:42:49;;;;;;;0.53;0.50;;;-2.30;99.90;;;;;;5083614;28;20435;-84
2023/02/09 08:45:16;;;;;;;0.80;0.80;;;-2.20;99.90;;;;;;5076002;28;20452;-84
2023/02/09 08:47:42;;;;;;;0.30;0.30;;;-2.10;99.90;;;;;;5073496;28;20461;-84
2023/02/09 08:50:09;;;;;;;0.30;0.30;;;-2.00;99.90;;;;;;5073552;28;20449;-83
2023/02/09 08:52:36;;;;;;;0.83;0.83;;;-1.90;99.90;;;;;;5076250;28;20941;-83
2023/02/09 08:55:04;;;;;;;0.40;0.40;;;-1.70;99.90;;;;;;5077166;28;20428;-83
2023/02/09 08:57:30;;;;;;;0.30;0.20;;;-1.40;99.90;;;;;;5076215;28;20489;-83
2023/02/09 08:59:58;;;;;;;0.40;0.40;;;-1.20;99.90;;;;;;5076171;28;20801;-83
2023/02/09 09:02:25;;;;;;;1.77;1.70;;;-0.80;99.90;;;;;;5077096;28;20448;-82
2023/02/09 09:04:52;;;;;;;2.80;0.90;;;-0.30;99.90;;;;;;5077595;28;20464;-85
2023/02/09 09:07:19;;;;;;;1.90;1.70;;;0.20;99.90;;;;;;5077830;28;20474;-82
2023/02/09 09:09:45;;;;;;;0.90;0.60;;;0.80;99.90;;;;;;5078610;28;20457;-82
2023/02/09 09:12:12;;;;;;;1.90;0.80;;;1.70;99.90;;;;;;5079377;28;20862;-82
2023/02/09 09:14:39;;;;;;;0.50;0.43;;;2.70;99.90;;;;;;5078024;28;20452;-83
2023/02/09 09:17:07;;;;;;;1.90;1.23;;;3.60;99.90;;;;;;5077558;28;21098;-84
2023/02/09 09:19:34;;;;;;;0.80;0.80;;;4.80;99.90;;;;;;5077902;28;20446;-83
2023/02/09 09:22:02;;;;;;;1.47;1.47;;;5.80;99.90;;;;;;5076903;28;20460;-82
2023/02/09 09:24:29;;;;;;;1.13;0.93;;;6.40;99.90;;;;;;5076813;28;20445;-82
2023/02/09 09:26:57;;;;;;;0.70;0.70;;;7.10;99.90;;;;;;5076026;28;20454;-83
2023/02/09 09:29:24;;;;;;;3.13;1.00;;;7.70;97.90;;;;;;5076490;28;20430;-82
2023/02/09 09:31:51;;;;;;;1.23;1.23;;;8.50;95.60;;;;;;5075948;28;20433;-82
2023/02/09 09:34:19;;;;;;;1.97;1.80;;;9.60;92.40;;;;;;5075627;28;20450;-82
2023/02/09 09:36:46;;;;;;;9.00;1.63;;;10.60;87.50;;;;;;5075326;28;21027;-82
2023/02/09 09:39:13;;;;;;;2.83;2.60;;;11.50;77.40;;;;;;5075734;28;20438;-83
2023/02/09 09:41:40;;;;;;;2.73;2.53;;;12.30;73.80;;;;;;5075052;28;20453;-82
2023/02/09 09:44:14;;;;;;;3.03;2.70;;;13.00;70.60;;;;;;5075559;28;20456;-83
2023/02/09 09:46:44;;;;;;;4.23;2.37;;;13.60;68.40;;;;;;5075925;28;20461;-82
2023/02/09 09:49:22;;;;;;;5.53;2.47;;;14.30;63.10;;;;;;5075572;28;20884;-83
2023/02/09 09:51:55;;;;;;;6.33;3.50;;;14.60;59.30;;;;;;5075344;28;20429;-83
2023/02/09 09:54:26;;;;;;;10.07;4.50;;;14.90;58.30;;;;;;5075547;28;20434;-83
2023/02/09 09:56:54;;;;;;;5.37;2.80;;;15.10;56.20;;;;;;5075144;28;20847;-83
2023/02/09 09:59:23;;;;;;;6.00;3.57;;;15.10;54.80;;;;;;5075355;28;20540;-82
2023/02/09 10:01:52;;;;;;;6.03;3.43;;;14.80;53.70;;;;;;5074767;28;20434;-83
2023/02/09 10:04:20;;;;;;;9.80;4.50;;;14.50;54.50;;;;;;5074916;28;20445;-83
2023/02/09 10:06:55;;;;;;;6.90;3.13;;;13.90;53.20;;;;;;5074932;28;20458;-83
2023/02/09 10:09:31;;;;;;;11.90;4.07;;;13.30;54.10;;;;;;5075295;28;20512;-83
2023/02/09 10:12:19;;;;;;;6.43;4.00;;;12.80;54.60;;;;;;5075384;28;20437;-82
2023/02/09 10:14:45;;;;;;;6.63;2.70;;;12.90;54.90;;;;;;5072826;28;20472;-82
2023/02/09 10:17:12;;;;;;;7.47;2.67;;;13.10;54.40;;;;;;5075039;28;20869;-82
2023/02/09 10:19:40;;;;;;;4.40;3.03;;;13.40;53.80;;;;;;5075229;28;20440;-82
2023/02/09 10:22:11;;;;;;;12.20;4.53;;;14.00;52.90;;;;;;5074644;28;20456;-82
2023/02/09 10:24:40;;;;;;;5.93;2.80;;;14.30;51.70;;;;;;5074722;28;20465;-82
2023/02/09 10:27:12;;;;;;;3.27;2.20;;;14.60;50.70;;;;;;5074189;28;20476;-82
2023/02/09 10:29:39;;;;;;;4.47;2.77;;;14.50;49.50;;;;;;5074500;28;20441;-82
2023/02/09 10:32:14;;;;;;;6.10;3.10;;;14.20;50.70;;;;;;5074440;28;20466;-83
2023/02/09 10:34:45;;;;;;;8.47;3.77;;;13.30;52.10;;;;;;5074452;28;20460;-82
2023/02/09 10:37:32;;;;;;;2.60;1.87;;;12.00;52.10;;;;;;5074214;28;20489;-83
2023/02/09 10:40:07;;;;;;;4.40;3.37;;;10.80;55.90;;;;;;5074440;28;20426;-83
2023/02/09 10:42:36;;;;;;;6.43;2.87;;;10.50;56.90;;;;;;5074142;28;20441;-82
2023/02/09 10:45:13;;;;;;;5.37;3.27;;;10.30;57.20;;;;;;5074170;28;20442;-83
2023/02/09 10:47:40;;;;;;;4.20;2.53;;;9.80;59.20;;;;;;5074487;28;20493;-82
2023/02/09 10:50:17;;;;;;;5.37;1.97;;;9.30;59.80;;;;;;5074030;28;20442;-85
2023/02/09 10:52:55;;;;;;;3.00;2.33;;;8.90;61.50;;;;;;5074561;28;20430;-82
2023/02/09 10:55:24;;;;;;;5.17;2.60;;;8.40;62.00;;;;;;5074746;28;20457;-83
2023/02/09 10:57:51;;;;;;;2.03;1.87;;;7.90;63.20;;;;;;5073649;28;20485;-82
2023/02/09 11:00:29;;;;;;;10.10;2.60;;;7.50;64.40;;;;;;5073929;28;20796;-82
2023/02/09 11:03:00;;;;;;;1.93;1.40;;;7.10;64.40;;;;;;5074166;28;20434;-83
2023/02/09 11:05:32;;;;;;;2.70;2.47;;;6.70;66.00;;;;;;5074127;28;20434;-84
2023/02/09 11:08:05;;;;;;;15.77;2.80;;;6.20;68.40;;;;;;5074267;28;20442;-84
2023/02/09 11:10:36;;;;;;;1.33;0.87;;;6.00;70.90;;;;;;5074177;28;20481;-84
2023/02/09 11:13:16;;;;;;;1.00;1.00;;;5.70;71.20;;;;;;5073880;28;20444;-84
2023/02/09 11:15:55;;;;;;;3.10;1.03;;;5.40;71.00;;;;;;5073349;28;20908;-84
2023/02/09 11:18:26;;;;;;;2.93;1.13;;;5.50;73.00;;;;;;5073647;28;20469;-84
2023/02/09 11:20:58;;;;;;;2.87;1.50;;;5.40;73.90;;;;;;5073648;28;20436;-84
2023/02/09 11:23:42;;;;;;;2.30;1.00;;;5.30;74.00;;;;;;5073622;28;20496;-84
2023/02/09 11:26:17;;;;;;;2.47;1.33;;;5.20;75.20;;;;;;5073563;28;20473;-84
2023/02/09 11:28:52;;;;;;;2.53;0.80;;;4.90;74.80;;;;;;5073211;28;20438;-84
2023/02/09 11:31:31;;;;;;;4.93;3.20;;;4.80;75.60;;;;;;5073635;28;20465;-84
2023/02/09 11:34:05;;;;;;;0.50;0.50;;;4.70;75.30;;;;;;5074112;28;20928;-84
2023/02/09 11:36:45;;;;;;;1.23;1.23;;;4.70;75.90;;;;;;5073223;28;20530;-84
2023/02/09 11:39:19;;;;;;;6.17;1.30;;;4.60;76.90;;;;;;5073644;28;20984;-84
2023/02/09 11:44:41;;;;;;;1.10;1.10;;;4.50;78.40;;;;;;5074485;28;20491;-84
2023/02/09 11:47:14;;;;;;;0.90;0.90;;;4.60;77.50;;;;;;5073683;28;20996;-85
2023/02/09 11:49:45;;;;;;;4.00;1.13;;;4.60;77.20;;;;;;5073913;28;20433;-84
2023/02/09 11:52:18;;;;;;;0.40;0.33;;;4.60;77.50;;;;;;5073549;28;20429;-84
2023/02/09 11:54:49;;;;;;;1.97;1.00;;;4.60;77.90;;;;;;5073840;28;20430;-85
2023/02/09 11:57:24;;;;;;;2.73;0.73;;;4.50;78.20;;;;;;5073415;28;20497;-85
2023/02/09 11:59:55;;;;;;;0.80;0.57;;;4.50;78.30;;;;;;5073538;28;20440;-84
2023/02/09 12:02:38;;;;;;;1.83;1.07;;;4.50;78.60;;;;;;5075048;28;20430;-84
2023/02/09 12:05:08;;;;;;;3.33;1.40;;;4.40;77.70;;;;;;5076286;28;20426;-85
2023/02/09 12:07:43;;;;;;;2.00;1.10;;;4.20;79.30;;;;;;5075887;28;20461;-84
2023/02/09 12:10:19;;;;;;;0.60;0.60;;;4.20;80.00;;;;;;5075821;28;20433;-84
2023/02/09 12:12:51;;;;;;;0.77;0.63;;;4.20;81.10;;;;;;5076126;28;20806;-84
2023/02/09 12:15:20;;;;;;;3.90;1.10;;;4.10;79.60;;;;;;5075818;28;20496;-84
2023/02/09 12:17:51;;;;;;;2.93;0.80;;;4.10;80.60;;;;;;5076587;28;20497;-84
2023/02/09 12:20:26;;;;;;;1.20;0.77;;;4.10;80.00;;;;;;5076054;28;20465;-84
2023/02/09 12:23:00;;;;;;;6.13;1.60;;;4.00;81.00;;;;;;5076149;28;20436;-84
2023/02/09 12:25:50;;;;;;;2.30;1.20;;;3.90;80.80;;;;;;5076238;28;20429;-84
2023/02/09 12:28:33;;;;;;;4.00;1.13;;;3.80;81.30;;;;;;5080320;28;20445;-84
2023/02/09 12:31:07;;;;;;;0.90;0.90;;;3.80;81.80;;;;;;5077655;28;20457;-84
2023/02/09 12:33:36;;;;;;;0.70;0.40;;;3.80;81.30;;;;;;5078234;28;20776;-84
2023/02/09 12:36:23;;;;;;;2.23;1.07;;;3.80;81.70;;;;;;5078821;28;20488;-84
2023/02/09 12:39:20;;;;;;;3.73;1.27;;;3.80;81.30;;;;;;5080849;28;20980;-85
2023/02/09 12:42:27;;;;;;;1.37;1.27;;;3.80;80.70;;;;;;5080588;28;20469;-85
2023/02/09 12:44:56;;;;;;;1.70;0.63;;;3.70;82.00;;;;;;5074747;28;20991;-84
2023/02/09 12:47:46;;;;;;;1.00;0.80;;;3.60;83.30;;;;;;5078390;28;20466;-84
2023/02/09 12:50:32;;;;;;;0.60;0.60;;;3.60;82.50;;;;;;5078858;28;20866;-85
2023/02/09 12:53:36;;;;;;;0.70;0.70;;;3.50;83.50;;;;;;5078273;28;20433;-84
2023/02/09 12:56:31;;;;;;;2.20;1.10;;;3.60;85.00;;;;;;5077924;28;20494;-84
2023/02/09 12:59:16;;;;;;;1.03;0.40;;;3.60;83.20;;;;;;5078738;28;20472;-84
2023/02/09 13:02:23;;;;;;;1.33;0.80;;;3.60;81.90;;;;;;5077754;28;20441;-84
2023/02/09 13:05:03;;;;;;;2.20;0.80;;;3.60;82.60;;;;;;5078506;28;20459;-84
2023/02/09 13:07:41;;;;;;;1.80;0.73;;;3.70;83.30;;;;;;5078209;28;20461;-84
2023/02/09 13:10:26;;;;;;;2.10;1.77;;;3.70;82.10;;;;;;5077871;28;20461;-84
2023/02/09 13:13:02;;;;;;;4.23;1.00;;;3.70;82.80;;;;;;5077753;28;20443;-82